Time,TemperatureF,DewpointF,PressureIn,WindDirection,WindDirectionDegrees,WindSpeedMPH,WindSpeedGustMPH,Humidity,HourlyPrecipIn,Conditions,Clouds,dailyrainin,SoftwareType,DateUTC
2013-04-29 00:09:00,52.9,52.6,29.81,NE,45,2.7,-999.0,99,-99.99,,,0.00,Acu-Link.com,2013-04-29 04:09:00,
2013-04-29 00:25:00,52.9,52.6,29.82,NNW,337,2.7,-999.0,99,-99.99,,,0.00,Acu-Link.com,2013-04-29 04:25:00,
2013-04-29 00:40:00,52.9,52.6,29.82,SE,135,2.2,-999.0,99,-99.99,,,0.00,Acu-Link.com,2013-04-29 04:40:00,
2013-04-29 00:55:00,52.9,52.6,29.83,SW,225,2.2,-999.0,99,-99.99,,,0.01,Acu-Link.com,2013-04-29 04:55:00,
2013-04-29 01:10:00,53.1,52.8,29.83,South,180,0.0,-999.0,99,-99.99,,,0.01,Acu-Link.com,2013-04-29 05:10:00,
2013-04-29 01:25:00,53.1,52.8,29.83,SW,225,1.1,-999.0,99,-99.99,,,0.02,Acu-Link.com,2013-04-29 05:25:00,
2013-04-29 01:40:00,53.1,52.8,29.83,SW,225,0.0,-999.0,99,-99.99,,,0.03,Acu-Link.com,2013-04-29 05:40:00,
2013-04-29 01:55:00,53.1,52.8,29.83,SSE,157,0.0,-999.0,99,-99.99,,,0.04,Acu-Link.com,2013-04-29 05:55:00,
2013-04-29 02:10:00,53.2,52.9,29.82,WNW,292,2.2,-999.0,99,-99.99,,,0.04,Acu-Link.com,2013-04-29 06:10:00,
2013-04-29 02:25:00,53.2,52.9,29.80,ESE,112,3.2,-999.0,99,-99.99,,,0.05,Acu-Link.com,2013-04-29 06:25:00,
2013-04-29 02:41:00,53.2,52.9,29.80,SSE,157,0.0,-999.0,99,-99.99,,,0.06,Acu-Link.com,2013-04-29 06:41:00,
2013-04-29 02:56:00,53.2,52.9,29.80,SSW,202,0.0,-999.0,99,-99.99,,,0.06,Acu-Link.com,2013-04-29 06:56:00,
2013-04-29 03:11:00,53.2,52.9,29.80,SSW,202,0.0,-999.0,99,-99.99,,,0.06,Acu-Link.com,2013-04-29 07:11:00,
2013-04-29 03:26:00,53.2,52.9,29.79,SSW,202,0.0,-999.0,99,-99.99,,,0.06,Acu-Link.com,2013-04-29 07:26:00,
2013-04-29 03:41:00,53.4,53.1,29.80,SSW,202,0.0,-999.0,99,-99.99,,,0.06,Acu-Link.com,2013-04-29 07:41:00,
2013-04-29 03:56:00,53.4,53.1,29.80,SSW,202,0.0,-999.0,99,-99.99,,,0.06,Acu-Link.com,2013-04-29 07:56:00,
2013-04-29 04:12:00,53.4,53.1,29.80,SSW,202,0.0,-999.0,99,-99.99,,,0.06,Acu-Link.com,2013-04-29 08:12:00,
2013-04-29 04:27:00,53.4,53.1,29.79,SSW,202,0.0,-999.0,99,-99.99,,,0.06,Acu-Link.com,2013-04-29 08:27:00,
2013-04-29 04:42:00,53.6,53.3,29.78,SSW,202,0.0,-999.0,99,-99.99,,,0.06,Acu-Link.com,2013-04-29 08:42:00,
2013-04-29 04:57:00,53.6,53.3,29.78,South,180,0.0,-999.0,99,-99.99,,,0.06,Acu-Link.com,2013-04-29 08:57:00,
2013-04-29 05:12:00,53.6,53.3,29.77,South,180,0.0,-999.0,99,-99.99,,,0.06,Acu-Link.com,2013-04-29 09:12:00,
2013-04-29 05:27:00,53.8,53.5,29.78,South,180,0.0,-999.0,99,-99.99,,,0.06,Acu-Link.com,2013-04-29 09:27:00,
2013-04-29 05:42:00,53.8,53.5,29.78,South,180,0.0,-999.0,99,-99.99,,,0.06,Acu-Link.com,2013-04-29 09:42:00,
2013-04-29 05:58:00,53.8,53.5,29.78,South,180,0.0,-999.0,99,-99.99,,,0.06,Acu-Link.com,2013-04-29 09:58:00,
2013-04-29 06:13:00,54.0,53.7,29.78,South,180,0.0,-999.0,99,-99.99,,,0.06,Acu-Link.com,2013-04-29 10:13:00,
2013-04-29 06:28:00,54.0,53.7,29.78,South,180,0.0,-999.0,99,-99.99,,,0.06,Acu-Link.com,2013-04-29 10:28:00,
2013-04-29 06:43:00,54.1,53.8,29.79,SSW,202,0.0,-999.0,99,-99.99,,,0.06,Acu-Link.com,2013-04-29 10:43:00,
2013-04-29 06:58:00,54.3,54.0,29.79,South,180,0.0,-999.0,99,-99.99,,,0.06,Acu-Link.com,2013-04-29 10:58:00,
2013-04-29 07:13:00,54.3,54.0,29.79,South,180,0.0,-999.0,99,-99.99,,,0.06,Acu-Link.com,2013-04-29 11:13:00,
2013-04-29 07:28:00,54.7,54.4,29.80,SSE,157,0.0,-999.0,99,-99.99,,,0.06,Acu-Link.com,2013-04-29 11:28:00,
2013-04-29 07:43:00,55.0,54.7,29.80,SSE,157,0.0,-999.0,99,-99.99,,,0.06,Acu-Link.com,2013-04-29 11:43:00,
2013-04-29 07:58:00,55.2,54.9,29.80,NE,45,1.1,-999.0,99,-99.99,,,0.06,Acu-Link.com,2013-04-29 11:58:00,
2013-04-29 08:14:00,55.6,55.3,29.80,South,180,0.0,-999.0,99,-99.99,,,0.06,Acu-Link.com,2013-04-29 12:14:00,
2013-04-29 08:29:00,55.8,55.5,29.81,South,180,0.0,-999.0,99,-99.99,,,0.06,Acu-Link.com,2013-04-29 12:29:00,
2013-04-29 08:44:00,55.9,55.6,29.81,SSE,157,0.0,-999.0,99,-99.99,,,0.06,Acu-Link.com,2013-04-29 12:44:00,
2013-04-29 08:59:00,56.1,55.8,29.81,SSE,157,0.0,-999.0,99,-99.99,,,0.06,Acu-Link.com,2013-04-29 12:59:00,
2013-04-29 09:14:00,56.8,56.5,29.81,SSW,202,0.0,-999.0,99,-99.99,,,0.06,Acu-Link.com,2013-04-29 13:14:00,
2013-04-29 09:29:00,57.0,56.7,29.81,SSW,202,0.0,-999.0,99,-99.99,,,0.06,Acu-Link.com,2013-04-29 13:29:00,
2013-04-29 09:44:00,57.7,57.4,29.81,SW,225,0.0,-999.0,99,-99.99,,,0.06,Acu-Link.com,2013-04-29 13:44:00,
2013-04-29 09:59:00,58.5,58.2,29.81,SSW,202,0.0,-999.0,99,-99.99,,,0.06,Acu-Link.com,2013-04-29 13:59:00,
2013-04-29 10:14:00,58.6,58.3,29.81,NNE,22,1.7,-999.0,99,-99.99,,,0.06,Acu-Link.com,2013-04-29 14:14:00,
2013-04-29 10:30:00,59.5,59.2,29.81,SSW,202,1.7,-999.0,99,-99.99,,,0.06,Acu-Link.com,2013-04-29 14:30:00,
2013-04-29 10:45:00,59.2,58.6,29.82,West,270,0.0,-999.0,98,-99.99,,,0.06,Acu-Link.com,2013-04-29 14:45:00,
2013-04-29 11:00:00,59.5,58.6,29.81,SW,225,1.1,-999.0,97,-99.99,,,0.06,Acu-Link.com,2013-04-29 15:00:00,
2013-04-29 11:15:00,59.9,58.8,29.82,WNW,292,1.1,-999.0,96,-99.99,,,0.06,Acu-Link.com,2013-04-29 15:15:00,
2013-04-29 11:30:00,59.5,58.6,29.82,West,270,0.0,-999.0,97,-99.99,,,0.06,Acu-Link.com,2013-04-29 15:30:00,
2013-04-29 11:45:00,60.6,60.0,29.82,SW,225,0.0,-999.0,98,-99.99,,,0.06,Acu-Link.com,2013-04-29 15:45:00,
2013-04-29 12:00:00,61.2,59.8,29.81,South,180,1.1,-999.0,95,-99.99,,,0.06,Acu-Link.com,2013-04-29 16:00:00,
2013-04-29 12:15:00,61.7,60.0,29.81,West,270,1.1,-999.0,94,-99.99,,,0.06,Acu-Link.com,2013-04-29 16:15:00,
2013-04-29 12:30:00,62.8,60.7,29.81,WSW,247,2.7,-999.0,93,-99.99,,,0.06,Acu-Link.com,2013-04-29 16:30:00,
2013-04-29 12:45:00,62.4,60.0,29.81,WSW,247,2.7,-999.0,92,-99.99,,,0.06,Acu-Link.com,2013-04-29 16:45:00,
2013-04-29 13:01:00,61.9,59.9,29.81,WSW,247,1.1,-999.0,93,-99.99,,,0.06,Acu-Link.com,2013-04-29 17:01:00,
2013-04-29 13:16:00,63.1,60.1,29.80,WSW,247,1.1,-999.0,90,-99.99,,,0.06,Acu-Link.com,2013-04-29 17:16:00,
2013-04-29 13:31:00,63.9,60.9,29.80,WSW,247,2.2,-999.0,90,-99.99,,,0.06,Acu-Link.com,2013-04-29 17:31:00,
2013-04-29 13:46:00,65.3,61.7,29.79,WNW,292,1.1,-999.0,88,-99.99,,,0.06,Acu-Link.com,2013-04-29 17:46:00,
2013-04-29 14:01:00,65.3,61.0,29.78,WNW,292,2.2,-999.0,86,-99.99,,,0.06,Acu-Link.com,2013-04-29 18:01:00,
2013-04-29 14:16:00,67.3,61.3,29.77,SW,225,1.7,-999.0,81,-99.99,,,0.06,Acu-Link.com,2013-04-29 18:16:00,
2013-04-29 14:31:00,68.5,62.4,29.77,SW,225,2.7,-999.0,81,-99.99,,,0.06,Acu-Link.com,2013-04-29 18:31:00,
2013-04-29 14:46:00,68.0,61.9,29.76,NE,45,2.7,-999.0,81,-99.99,,,0.06,Acu-Link.com,2013-04-29 18:46:00,
2013-04-29 15:01:00,69.8,62.6,29.75,WSW,247,1.7,-999.0,78,-99.99,,,0.06,Acu-Link.com,2013-04-29 19:01:00,
2013-04-29 15:17:00,70.5,61.8,29.74,West,270,3.7,-999.0,74,-99.99,,,0.06,Acu-Link.com,2013-04-29 19:17:00,
2013-04-29 15:32:00,70.3,61.2,29.74,SW,225,4.2,-999.0,73,-99.99,,,0.06,Acu-Link.com,2013-04-29 19:32:00,
2013-04-29 15:47:00,71.8,60.7,29.73,South,180,1.7,-999.0,68,-99.99,,,0.06,Acu-Link.com,2013-04-29 19:47:00,
2013-04-29 16:02:00,71.1,59.6,29.72,South,180,1.1,-999.0,67,-99.99,,,0.06,Acu-Link.com,2013-04-29 20:02:00,
2013-04-29 16:17:00,70.9,58.1,29.71,SSE,157,1.7,-999.0,64,-99.99,,,0.06,Acu-Link.com,2013-04-29 20:17:00,
2013-04-29 16:32:00,71.1,57.9,29.70,WSW,247,3.2,-999.0,63,-99.99,,,0.06,Acu-Link.com,2013-04-29 20:32:00,
2013-04-29 16:47:00,72.7,58.0,29.70,West,270,2.2,-999.0,60,-99.99,,,0.06,Acu-Link.com,2013-04-29 20:47:00,
2013-04-29 17:02:00,74.3,58.1,29.70,SSW,202,1.1,-999.0,57,-99.99,,,0.06,Acu-Link.com,2013-04-29 21:02:00,
2013-04-29 17:17:00,73.4,58.2,29.70,ESE,112,2.2,-999.0,59,-99.99,,,0.06,Acu-Link.com,2013-04-29 21:17:00,
2013-04-29 17:33:00,73.4,57.7,29.70,South,180,0.0,-999.0,58,-99.99,,,0.06,Acu-Link.com,2013-04-29 21:33:00,
2013-04-29 17:48:00,75.6,57.8,29.69,South,180,1.7,-999.0,54,-99.99,,,0.06,Acu-Link.com,2013-04-29 21:48:00,
2013-04-29 18:03:00,73.4,56.7,29.69,SSW,202,1.7,-999.0,56,-99.99,,,0.06,Acu-Link.com,2013-04-29 22:03:00,
2013-04-29 18:18:00,73.4,58.2,29.68,NW,315,1.7,-999.0,59,-99.99,,,0.06,Acu-Link.com,2013-04-29 22:18:00,
2013-04-29 18:33:00,70.7,57.5,29.69,North,0,1.7,-999.0,63,-99.99,,,0.06,Acu-Link.com,2013-04-29 22:33:00,
2013-04-29 18:48:00,71.4,56.3,29.69,SW,225,0.0,-999.0,59,-99.99,,,0.06,Acu-Link.com,2013-04-29 22:48:00,
2013-04-29 19:03:00,70.7,57.5,29.69,ENE,67,2.7,-999.0,63,-99.99,,,0.06,Acu-Link.com,2013-04-29 23:03:00,
2013-04-29 19:18:00,70.0,58.1,29.70,NNW,337,0.0,-999.0,66,-99.99,,,0.06,Acu-Link.com,2013-04-29 23:18:00,
2013-04-29 19:33:00,69.1,58.1,29.71,SSW,202,0.0,-999.0,68,-99.99,,,0.06,Acu-Link.com,2013-04-29 23:33:00,
2013-04-29 19:49:00,68.7,58.1,29.71,East,90,1.7,-999.0,69,-99.99,,,0.06,Acu-Link.com,2013-04-29 23:49:00,
2013-04-29 20:04:00,67.8,57.3,29.72,SE,135,0.0,-999.0,69,-99.99,,,0.06,Acu-Link.com,2013-04-30 00:04:00,
2013-04-29 20:19:00,66.2,56.1,29.73,SE,135,0.0,-999.0,70,-99.99,,,0.06,Acu-Link.com,2013-04-30 00:19:00,
2013-04-29 20:34:00,65.1,55.8,29.73,ESE,112,0.0,-999.0,72,-99.99,,,0.06,Acu-Link.com,2013-04-30 00:34:00,
2013-04-29 20:49:00,64.2,55.7,29.74,ESE,112,0.0,-999.0,74,-99.99,,,0.06,Acu-Link.com,2013-04-30 00:49:00,
2013-04-29 21:04:00,63.7,55.6,29.75,ESE,112,0.0,-999.0,75,-99.99,,,0.06,Acu-Link.com,2013-04-30 01:04:00,
2013-04-29 21:19:00,63.1,55.8,29.75,East,90,0.0,-999.0,77,-99.99,,,0.06,Acu-Link.com,2013-04-30 01:19:00,
2013-04-29 21:34:00,62.8,55.8,29.75,East,90,0.0,-999.0,78,-99.99,,,0.06,Acu-Link.com,2013-04-30 01:34:00,
2013-04-29 21:49:00,62.4,56.1,29.76,East,90,0.0,-999.0,80,-99.99,,,0.06,Acu-Link.com,2013-04-30 01:49:00,
2013-04-29 22:05:00,62.2,56.6,29.76,East,90,0.0,-999.0,82,-99.99,,,0.06,Acu-Link.com,2013-04-30 02:05:00,
2013-04-29 22:20:00,61.9,56.3,29.77,East,90,0.0,-999.0,82,-99.99,,,0.06,Acu-Link.com,2013-04-30 02:20:00,
2013-04-29 22:35:00,61.7,56.8,29.77,East,90,0.0,-999.0,84,-99.99,,,0.06,Acu-Link.com,2013-04-30 02:35:00,
2013-04-29 22:50:00,61.3,56.7,29.77,East,90,1.7,-999.0,85,-99.99,,,0.06,Acu-Link.com,2013-04-30 02:50:00,
2013-04-29 23:05:00,61.2,57.0,29.76,East,90,0.0,-999.0,86,-99.99,,,0.06,Acu-Link.com,2013-04-30 03:05:00,
2013-04-29 23:20:00,60.8,57.2,29.76,East,90,0.0,-999.0,88,-99.99,,,0.06,Acu-Link.com,2013-04-30 03:20:00,
2013-04-29 23:35:00,60.8,57.5,29.76,East,90,0.0,-999.0,89,-99.99,,,0.06,Acu-Link.com,2013-04-30 03:35:00,
2013-04-29 23:50:00,60.6,57.6,29.76,East,90,0.0,-999.0,90,-99.99,,,0.06,Acu-Link.com,2013-04-30 03:50:00,